Vytegra, Russia
Current Conditions -  °F | °C
As of 7:30 PM on Saturday 25 Oct 2014 (Local Time) from ULWC Reporting Station
Clear Clear  
Wind Chill: 11°   Ceiling: Unl
Heat Index: 19°   Visibility: 6mi
Dew Point: 12°   Wind: 7mph
Humidity: 74%   Direction: 220°SW
Pressure: 30.5"   Gusts: NA
Location:  61°N, 36.4°E
Report Text: ULWC 251630Z 22003MPS CAVOK M07/M11 Q1033 NOSIG RMK QFE764/1019SC047
Loading
Personal Weather Stations






























Interactive Weather Map
Tropical Storm Tracking
New forecast layout! Learn more

10-Day Weather Forecast

Advertisements
Track Severe Weather on mobile